Time;durP1;ratioP1;P1;durP2;ratioP2;P2;SDS_P1;SDS_P2;PMS_P1;PMS_P2;Temp;Humidity;BMP_temperature;BMP_pressure;BME280_temperature;BME280_humidity;BME280_pressure;Samples;Min_cycle;Max_cycle;Signal;HPM_P1;HPM_P2
2022/10/04 00:01:47;;;;;;;2.70;1.00;;;13.60;99.90;13.60;101132.00;;;;4950008;28;90732;-60
2022/10/04 00:05:04;;;;;;;2.13;1.07;;;13.60;99.90;13.60;101131.00;;;;4966973;28;87800;-60
2022/10/04 00:07:36;;;;;;;4.10;1.03;;;13.60;99.90;13.60;101132.00;;;;4953582;28;88167;-57
2022/10/04 00:10:07;;;;;;;2.97;1.33;;;13.60;99.90;13.60;101131.00;;;;4955145;28;98831;-57
2022/10/04 00:12:51;;;;;;;2.47;0.97;;;13.60;99.90;13.60;101136.00;;;;4943304;28;88311;-56
2022/10/04 00:15:22;;;;;;;3.13;1.10;;;13.60;99.90;13.60;101140.00;;;;4945098;28;107717;-60
2022/10/04 00:18:39;;;;;;;1.00;0.90;;;13.60;99.90;13.50;101129.00;;;;4949913;28;87848;-59
2022/10/04 00:21:07;;;;;;;1.23;1.00;;;13.60;99.90;13.60;101136.00;;;;4937333;28;88089;-60
2022/10/04 00:23:36;;;;;;;3.60;0.67;;;13.60;99.90;13.60;101137.00;;;;4959763;28;88520;-60
2022/10/04 00:26:04;;;;;;;0.50;0.40;;;13.50;99.90;13.50;101132.00;;;;4955261;28;119229;-58
2022/10/04 00:28:46;;;;;;;0.50;0.50;;;13.50;99.90;13.50;101138.00;;;;4956442;28;86797;-58
2022/10/04 00:31:24;;;;;;;4.33;1.03;;;13.50;99.90;13.50;101132.00;;;;4947676;28;87899;-60
2022/10/04 00:34:07;;;;;;;0.77;0.77;;;13.50;99.90;13.40;101138.00;;;;4950043;28;88699;-60
2022/10/04 00:36:44;;;;;;;1.03;0.93;;;13.50;99.90;13.40;101134.00;;;;4943020;28;101082;-60
2022/10/04 00:39:10;;;;;;;1.00;0.70;;;13.40;99.90;13.40;101138.00;;;;4969010;28;88011;-59
2022/10/04 00:41:48;;;;;;;0.70;0.60;;;13.40;99.90;13.40;101141.00;;;;4968424;28;87423;-60
2022/10/04 00:44:59;;;;;;;1.83;0.50;;;13.40;99.90;13.30;101137.00;;;;4954500;28;88779;-60
2022/10/04 00:48:03;;;;;;;3.57;1.20;;;13.40;99.90;13.30;101134.00;;;;4951928;28;88335;-59
2022/10/04 00:50:37;;;;;;;0.80;0.80;;;13.40;99.90;13.30;101138.00;;;;4949627;28;87710;-60
2022/10/04 00:53:58;;;;;;;1.27;0.80;;;13.30;99.90;13.20;101131.00;;;;4950330;28;101684;-60
2022/10/04 00:56:32;;;;;;;1.20;1.10;;;13.40;99.90;13.20;101136.00;;;;4942434;28;87835;-59
2022/10/04 00:58:58;;;;;;;2.70;1.00;;;13.20;99.90;13.20;101139.00;;;;4955820;28;88695;-59
2022/10/04 01:01:28;;;;;;;3.83;1.43;;;13.20;99.90;13.20;101133.00;;;;4957803;28;111002;-58
2022/10/04 01:03:56;;;;;;;0.70;0.60;;;13.20;99.90;13.20;101123.00;;;;4955347;28;89114;-59
2022/10/04 01:06:23;;;;;;;1.20;0.93;;;13.20;99.90;13.20;101127.00;;;;4956404;28;88586;-60
2022/10/04 01:08:53;;;;;;;2.33;1.20;;;13.20;99.90;13.20;101126.00;;;;4961164;28;116430;-60
2022/10/04 01:11:28;;;;;;;1.07;0.97;;;13.20;99.90;13.20;101122.00;;;;4958893;28;87793;-60
2022/10/04 01:14:04;;;;;;;2.57;0.80;;;13.20;99.90;13.20;101112.00;;;;4946091;28;96275;-59
2022/10/04 01:16:37;;;;;;;3.37;1.93;;;13.20;99.90;13.20;101116.00;;;;4955651;28;105594;-59
2022/10/04 01:19:29;;;;;;;12.37;1.20;;;13.20;99.90;13.20;101113.00;;;;4965440;28;88020;-59
2022/10/04 01:22:06;;;;;;;8.80;1.53;;;13.20;99.90;13.20;101119.00;;;;4956477;28;87788;-60
2022/10/04 01:24:43;;;;;;;2.50;0.93;;;13.20;99.90;13.20;101115.00;;;;4950539;28;107016;-60
2022/10/04 01:27:39;;;;;;;2.70;1.20;;;13.20;99.90;13.10;101114.00;;;;4945681;28;88951;-60
2022/10/04 01:30:16;;;;;;;1.50;1.00;;;13.20;99.90;13.10;101106.00;;;;4959219;28;88817;-59
2022/10/04 01:32:42;;;;;;;1.97;0.70;;;13.10;99.90;13.10;101102.00;;;;4963287;28;87920;-58
2022/10/04 01:35:12;;;;;;;0.73;0.73;;;13.10;99.90;13.10;101112.00;;;;4949834;28;87915;-60
2022/10/04 01:37:38;;;;;;;1.57;0.63;;;13.10;99.90;13.10;101103.00;;;;4965351;28;108445;-59
2022/10/04 01:40:08;;;;;;;0.97;0.70;;;13.10;99.90;13.10;101096.00;;;;4963805;28;117285;-59
2022/10/04 01:42:44;;;;;;;3.23;0.73;;;13.10;99.90;13.10;101104.00;;;;4953616;28;89419;-60
2022/10/04 01:45:22;;;;;;;0.50;0.50;;;13.10;99.90;13.00;101102.00;;;;4953895;28;88041;-60
2022/10/04 01:48:06;;;;;;;1.83;0.97;;;13.10;99.90;13.00;101091.00;;;;4952157;28;87357;-59
2022/10/04 01:50:46;;;;;;;0.40;0.40;;;13.10;99.90;13.00;101107.00;;;;4958401;28;108690;-59
2022/10/04 01:53:30;;;;;;;0.80;0.60;;;13.00;99.90;13.00;101104.00;;;;4970543;28;87918;-59
2022/10/04 01:56:17;;;;;;;1.73;0.70;;;13.00;99.90;13.00;101104.00;;;;4966380;28;89279;-60
2022/10/04 01:59:16;;;;;;;1.67;0.93;;;13.00;99.90;13.00;101103.00;;;;4951129;28;112195;-60
2022/10/04 02:02:14;;;;;;;1.03;0.50;;;13.00;99.90;13.00;101103.00;;;;4952056;28;88243;-59
2022/10/04 02:04:41;;;;;;;2.33;1.33;;;13.00;99.90;13.00;101096.00;;;;4968307;28;103771;-60
2022/10/04 02:07:14;;;;;;;0.67;0.57;;;13.00;99.90;13.00;101091.00;;;;4963294;28;107119;-60
2022/10/04 02:09:44;;;;;;;1.97;0.93;;;13.00;99.90;13.00;101088.00;;;;4966518;28;117277;-60
2022/10/04 02:12:18;;;;;;;3.20;0.60;;;13.00;99.90;13.00;101102.00;;;;4952116;28;87872;-60
2022/10/04 02:14:53;;;;;;;3.60;1.00;;;13.00;99.90;13.00;101099.00;;;;4956284;28;86988;-60
2022/10/04 02:17:29;;;;;;;5.50;0.87;;;13.00;99.90;13.00;101089.00;;;;4958905;28;87615;-60
2022/10/04 02:19:57;;;;;;;3.80;1.17;;;13.00;99.90;13.00;101099.00;;;;4971935;28;101279;-60
2022/10/04 02:22:24;;;;;;;1.13;0.77;;;13.00;99.90;13.00;101106.00;;;;4954910;28;88720;-60
2022/10/04 02:24:52;;;;;;;1.60;0.63;;;13.00;99.90;13.00;101096.00;;;;4958903;28;103243;-60
2022/10/04 02:27:18;;;;;;;0.80;0.80;;;13.00;99.90;13.00;101099.00;;;;4957402;28;88164;-59
2022/10/04 02:29:44;;;;;;;1.43;1.00;;;13.00;99.90;13.10;101090.00;;;;4947960;28;115231;-59
2022/10/04 02:34:57;;;;;;;3.57;1.40;;;13.10;99.90;13.10;101096.00;;;;4967539;28;87644;-58
2022/10/04 02:37:25;;;;;;;2.80;1.07;;;13.10;99.90;13.10;101099.00;;;;4958123;28;87850;-58
2022/10/04 02:40:12;;;;;;;2.60;1.13;;;13.10;99.90;13.10;101092.00;;;;4954279;28;93731;-59
2022/10/04 02:43:15;;;;;;;0.90;0.87;;;13.00;99.90;13.00;101093.00;;;;4968386;28;87693;-59
2022/10/04 02:45:51;;;;;;;1.63;0.90;;;13.10;99.90;13.10;101091.00;;;;4955381;28;87787;-60
2022/10/04 02:48:37;;;;;;;1.27;0.77;;;13.10;99.90;13.10;101089.00;;;;4953830;28;88965;-59
2022/10/04 02:51:19;;;;;;;0.70;0.50;;;13.10;99.90;13.10;101086.00;;;;4956540;28;110390;-60
2022/10/04 02:53:51;;;;;;;2.40;0.90;;;13.10;99.90;13.00;101078.00;;;;4963827;28;88155;-59
2022/10/04 02:56:18;;;;;;;1.83;0.90;;;13.00;99.90;13.00;101081.00;;;;4955507;28;87663;-60
2022/10/04 02:58:43;;;;;;;1.10;0.93;;;13.00;99.90;13.00;101079.00;;;;4950369;28;107318;-60
2022/10/04 03:01:45;;;;;;;1.03;0.67;;;13.00;99.90;13.00;101085.00;;;;4954534;28;117670;-60
2022/10/04 03:04:13;;;;;;;3.20;1.47;;;13.00;99.90;13.00;101085.00;;;;4950396;28;88483;-61
2022/10/04 03:06:40;;;;;;;4.73;1.07;;;13.00;99.90;13.00;101075.00;;;;4956188;28;87373;-59
2022/10/04 03:09:07;;;;;;;0.73;0.73;;;13.00;99.90;13.00;101075.00;;;;4956329;28;95702;-59
2022/10/04 03:11:36;;;;;;;0.80;0.77;;;13.00;99.90;13.00;101080.00;;;;4955877;28;117014;-60
2022/10/04 03:14:09;;;;;;;6.73;1.23;;;13.00;99.90;13.00;101085.00;;;;4954908;28;88587;-60
2022/10/04 03:16:41;;;;;;;0.63;0.53;;;13.40;99.90;13.00;101085.00;;;;4956818;28;87839;-60
2022/10/04 03:19:10;;;;;;;1.40;0.90;;;13.00;99.90;13.00;101088.00;;;;4951998;28;99327;-60
2022/10/04 03:21:37;;;;;;;0.73;0.73;;;13.00;99.90;13.00;101074.00;;;;4957789;28;88768;-60
2022/10/04 03:24:05;;;;;;;0.70;0.60;;;13.00;99.90;13.00;101090.00;;;;4953938;28;110208;-60
2022/10/04 03:26:45;;;;;;;2.40;1.40;;;13.00;99.90;12.90;101083.00;;;;4950806;28;87924;-59
2022/10/04 03:29:13;;;;;;;4.23;1.07;;;12.90;99.90;12.90;101081.00;;;;4955086;28;99523;-61
2022/10/04 03:31:43;;;;;;;4.00;0.67;;;12.90;99.90;12.90;101086.00;;;;4969078;28;92406;-60
2022/10/04 03:34:34;;;;;;;1.13;0.77;;;12.90;99.90;12.90;101084.00;;;;4955296;28;105147;-60
2022/10/04 03:37:02;;;;;;;1.27;0.63;;;12.90;99.90;12.90;101074.00;;;;4955592;28;87822;-59
2022/10/04 03:39:32;;;;;;;1.10;0.80;;;12.90;99.90;12.90;101080.00;;;;4953836;28;88702;-59
2022/10/04 03:42:04;;;;;;;4.47;1.00;;;12.90;99.90;12.90;101083.00;;;;4971396;28;88282;-60
2022/10/04 03:44:30;;;;;;;1.20;0.80;;;12.90;99.90;12.90;101078.00;;;;4955853;28;87801;-60
2022/10/04 03:46:57;;;;;;;1.17;0.67;;;12.90;99.90;12.90;101086.00;;;;4951566;28;110475;-60
2022/10/04 03:49:32;;;;;;;1.17;0.80;;;13.00;99.90;12.90;101084.00;;;;4956067;28;89115;-60
2022/10/04 03:52:00;;;;;;;3.07;1.33;;;12.90;99.90;12.90;101087.00;;;;4974571;28;90175;-60
2022/10/04 03:54:26;;;;;;;1.70;0.87;;;12.90;99.90;12.90;101092.00;;;;4945513;28;97123;-59
2022/10/04 03:56:53;;;;;;;2.53;1.30;;;12.90;99.90;12.90;101096.00;;;;4956985;28;108882;-59
2022/10/04 03:59:20;;;;;;;2.07;1.30;;;12.90;99.90;12.90;101094.00;;;;4957345;28;88056;-60
2022/10/04 04:02:02;;;;;;;2.10;0.77;;;12.90;99.90;12.90;101088.00;;;;4951573;28;107280;-59
2022/10/04 04:04:57;;;;;;;4.40;1.27;;;12.90;99.90;12.90;101091.00;;;;4963964;28;88814;-59
2022/10/04 04:07:43;;;;;;;1.10;1.00;;;12.90;99.90;12.90;101094.00;;;;4949717;28;88076;-60
2022/10/04 04:10:22;;;;;;;4.23;1.03;;;12.90;99.90;12.90;101081.00;;;;4970810;28;102598;-60
2022/10/04 04:13:28;;;;;;;2.07;1.13;;;12.90;99.90;12.80;101086.00;;;;4969638;28;109874;-59
2022/10/04 04:15:55;;;;;;;1.33;1.23;;;12.90;99.90;12.90;101093.00;;;;4957050;28;88058;-60
2022/10/04 04:18:30;;;;;;;4.27;1.23;;;12.90;99.90;12.80;101100.00;;;;4957606;28;87945;-60
2022/10/04 04:20:59;;;;;;;3.70;1.33;;;12.80;99.90;12.80;101094.00;;;;4954871;28;98832;-60
2022/10/04 04:23:39;;;;;;;4.33;0.70;;;12.80;99.90;12.80;101090.00;;;;4950396;28;104737;-59
2022/10/04 04:26:26;;;;;;;2.07;1.13;;;12.80;99.90;12.80;101100.00;;;;4950548;28;88531;-60
2022/10/04 04:29:31;;;;;;;5.90;1.20;;;12.80;99.90;12.80;101100.00;;;;4971396;28;87996;-60
2022/10/04 04:32:17;;;;;;;4.07;1.23;;;12.80;99.90;12.80;101110.00;;;;4947614;28;88650;-58
2022/10/04 04:34:56;;;;;;;1.53;1.00;;;12.80;99.90;12.80;101107.00;;;;4946954;28;88403;-60
2022/10/04 04:37:22;;;;;;;4.50;1.30;;;12.80;99.90;12.80;101108.00;;;;4956593;28;101073;-60
2022/10/04 04:39:53;;;;;;;3.67;1.67;;;12.80;99.90;12.80;101095.00;;;;4949209;28;97380;-60
2022/10/04 04:42:31;;;;;;;2.17;1.13;;;12.80;99.90;12.80;101102.00;;;;4951767;28;87990;-60
2022/10/04 04:45:13;;;;;;;1.50;1.20;;;12.80;99.90;12.80;101104.00;;;;4953637;28;88732;-59
2022/10/04 04:47:44;;;;;;;1.30;1.20;;;12.80;99.90;12.80;101111.00;;;;4962742;28;88089;-60
2022/10/04 04:50:29;;;;;;;2.60;1.00;;;12.80;99.90;12.80;101108.00;;;;4947945;28;97800;-60
2022/10/04 04:53:11;;;;;;;7.03;1.33;;;12.80;99.90;12.70;101102.00;;;;4945919;28;87864;-60
2022/10/04 04:55:51;;;;;;;4.03;1.63;;;12.70;99.90;12.70;101106.00;;;;4952543;28;89387;-59
2022/10/04 04:58:34;;;;;;;3.23;1.50;;;12.80;99.90;12.70;101108.00;;;;4951472;28;109436;-59
2022/10/04 05:01:24;;;;;;;1.67;1.17;;;12.80;99.90;12.70;101111.00;;;;4951781;28;87949;-59
2022/10/04 05:04:17;;;;;;;1.10;0.90;;;12.70;99.90;12.70;101119.00;;;;4960195;28;87844;-60
2022/10/04 05:07:05;;;;;;;11.87;1.97;;;12.80;99.90;12.70;101116.00;;;;4969188;28;89030;-59
2022/10/04 05:09:39;;;;;;;0.90;0.90;;;12.70;99.90;12.70;101117.00;;;;4946642;28;88661;-60
2022/10/04 05:12:15;;;;;;;0.80;0.60;;;12.70;99.90;12.70;101119.00;;;;4948852;28;87981;-60
2022/10/04 05:14:48;;;;;;;2.33;1.10;;;12.70;99.90;12.60;101118.00;;;;4946612;28;99627;-60
2022/10/04 05:17:28;;;;;;;4.53;1.30;;;12.70;99.90;12.60;101117.00;;;;4953630;28;87369;-60
2022/10/04 05:19:58;;;;;;;2.80;1.00;;;12.60;99.90;12.60;101123.00;;;;4956447;28;106048;-60
2022/10/04 05:22:25;;;;;;;1.83;0.80;;;12.60;99.90;12.60;101129.00;;;;4960259;28;94327;-59
2022/10/04 05:25:01;;;;;;;1.00;1.00;;;12.60;99.90;12.60;101130.00;;;;4971896;28;102387;-60
2022/10/04 05:27:39;;;;;;;5.07;1.27;;;12.60;99.90;12.60;101124.00;;;;4955811;28;87808;-60
2022/10/04 05:30:26;;;;;;;2.07;0.97;;;12.60;99.90;12.60;101133.00;;;;4944082;28;103650;-60
2022/10/04 05:33:07;;;;;;;1.73;1.40;;;12.60;99.90;12.60;101135.00;;;;4945666;28;87757;-59
2022/10/04 05:36:10;;;;;;;1.23;0.80;;;12.60;99.90;12.60;101135.00;;;;4954216;28;87755;-57
2022/10/04 05:38:52;;;;;;;4.07;1.20;;;12.60;99.90;12.60;101146.00;;;;4960031;28;88456;-59
2022/10/04 05:41:52;;;;;;;2.20;1.33;;;12.60;99.90;12.60;101147.00;;;;4972353;28;112211;-60
2022/10/04 05:44:35;;;;;;;1.40;1.13;;;12.60;99.90;12.60;101146.00;;;;4974718;28;86978;-59
2022/10/04 05:47:05;;;;;;;1.73;1.60;;;12.60;99.90;12.70;101146.00;;;;4956340;28;101989;-59
2022/10/04 05:49:42;;;;;;;3.13;1.47;;;12.70;99.90;12.80;101147.00;;;;4951450;28;110119;-60
2022/10/04 05:52:34;;;;;;;1.90;1.07;;;12.80;99.90;12.90;101143.00;;;;4954173;28;88701;-60
2022/10/04 05:55:16;;;;;;;2.83;1.27;;;12.90;99.90;13.00;101140.00;;;;4950146;28;88055;-59
2022/10/04 05:58:25;;;;;;;0.70;0.70;;;13.00;99.90;13.00;101152.00;;;;4954328;28;87784;-60
2022/10/04 06:01:35;;;;;;;1.03;0.70;;;13.00;99.90;13.00;101150.00;;;;4959892;28;88158;-60
2022/10/04 06:04:19;;;;;;;4.57;1.10;;;13.00;99.90;12.90;101143.00;;;;4981393;28;87993;-60
2022/10/04 06:07:01;;;;;;;1.40;1.20;;;12.90;99.90;12.90;101148.00;;;;4954994;28;104735;-59
2022/10/04 06:09:54;;;;;;;1.30;0.80;;;12.90;99.90;12.80;101148.00;;;;4953578;28;88458;-59
2022/10/04 06:12:54;;;;;;;3.20;1.03;;;12.90;99.90;12.80;101150.00;;;;4980120;27;111332;-60
2022/10/04 06:16:06;;;;;;;1.17;0.87;;;12.90;99.90;12.80;101152.00;;;;4960761;28;87809;-59
2022/10/04 06:19:01;;;;;;;0.97;0.63;;;12.80;99.90;12.80;101153.00;;;;4969132;28;87868;-59
2022/10/04 06:21:27;;;;;;;3.80;1.10;;;12.80;99.90;12.80;101152.00;;;;4968918;28;98188;-59
2022/10/04 06:24:03;;;;;;;5.27;1.50;;;12.80;99.90;12.80;101152.00;;;;4951050;28;88548;-56
2022/10/04 06:26:43;;;;;;;0.83;0.83;;;12.80;99.90;12.70;101163.00;;;;4949516;28;109918;-60
2022/10/04 06:29:15;;;;;;;2.70;1.40;;;12.80;99.90;12.70;101166.00;;;;4958962;28;88073;-60
2022/10/04 06:32:10;;;;;;;1.30;1.20;;;12.80;99.90;12.70;101169.00;;;;4949228;28;100364;-58
2022/10/04 06:35:02;;;;;;;4.30;1.63;;;12.70;99.90;12.60;101171.00;;;;4954633;28;103770;-60
2022/10/04 06:37:53;;;;;;;1.97;1.77;;;12.70;99.90;12.60;101167.00;;;;4962582;28;87936;-59
2022/10/04 06:41:06;;;;;;;2.57;1.30;;;12.70;99.90;12.70;101171.00;;;;4967202;28;87230;-60
2022/10/04 06:44:03;;;;;;;3.60;1.73;;;12.70;99.90;12.70;101175.00;;;;4940447;28;87805;-59
2022/10/04 06:46:41;;;;;;;1.67;1.57;;;12.70;99.90;12.80;101173.00;;;;4954673;28;87684;-59
2022/10/04 06:49:53;;;;;;;2.20;1.47;;;12.80;99.90;12.90;101176.00;;;;4962031;28;88680;-59
2022/10/04 06:52:46;;;;;;;1.77;1.37;;;12.90;99.90;13.00;101178.00;;;;4951245;28;87721;-60
2022/10/04 06:55:48;;;;;;;1.70;1.27;;;13.00;99.90;13.00;101180.00;;;;4942269;28;87855;-60
2022/10/04 06:58:55;;;;;;;5.23;1.83;;;13.00;99.90;13.20;101188.00;;;;4954978;28;89753;-60
2022/10/04 07:01:29;;;;;;;4.73;1.17;;;13.10;99.90;13.40;101192.00;;;;4955487;28;87751;-59
2022/10/04 07:04:26;;;;;;;5.40;1.77;;;13.30;99.90;13.40;101196.00;;;;4953701;28;88231;-60
2022/10/04 07:07:35;;;;;;;1.53;1.20;;;13.40;99.90;13.50;101194.00;;;;4955152;28;88086;-57
2022/10/04 07:10:36;;;;;;;1.57;1.30;;;13.50;99.90;13.60;101201.00;;;;4960865;28;87454;-59
2022/10/04 07:13:10;;;;;;;2.00;1.50;;;13.60;99.90;13.70;101211.00;;;;4944317;28;88298;-60
2022/10/04 07:15:58;;;;;;;1.50;1.40;;;13.60;99.90;13.70;101205.00;;;;4946160;28;87663;-59
2022/10/04 07:18:49;;;;;;;1.33;1.20;;;13.70;99.90;13.70;101202.00;;;;4970047;28;92128;-59
2022/10/04 07:21:16;;;;;;;4.27;1.53;;;13.70;99.90;13.80;101210.00;;;;4967475;28;94811;-60
2022/10/04 07:24:02;;;;;;;0.80;0.80;;;13.80;99.90;13.90;101204.00;;;;4946476;28;116556;-60
2022/10/04 07:26:37;;;;;;;1.70;1.27;;;13.80;99.90;14.00;101209.00;;;;4970198;28;88161;-58
2022/10/04 07:29:22;;;;;;;1.23;1.13;;;13.90;99.90;14.10;101212.00;;;;4951820;28;87652;-59
2022/10/04 07:32:16;;;;;;;1.40;1.00;;;14.00;99.90;14.20;101213.00;;;;4980557;27;88231;-60
2022/10/04 07:34:50;;;;;;;2.30;1.57;;;14.10;99.90;14.40;101204.00;;;;4986392;27;87984;-59
2022/10/04 07:37:17;;;;;;;5.10;1.40;;;14.30;99.90;14.60;101211.00;;;;4949838;28;101601;-60
2022/10/04 07:39:49;;;;;;;2.28;1.58;;;14.40;99.90;14.80;101207.00;;;;4944961;28;107606;-60
2022/10/04 07:42:47;;;;;;;2.83;1.20;;;14.60;99.90;14.90;101212.00;;;;4947286;28;88812;-57
2022/10/04 07:45:22;;;;;;;1.27;1.00;;;14.70;99.90;15.00;101217.00;;;;4951905;28;88730;-57
2022/10/04 07:47:48;;;;;;;3.75;0.98;;;14.90;99.90;15.00;101216.00;;;;4948896;28;87796;-57
2022/10/04 07:50:28;;;;;;;0.90;0.88;;;14.90;99.90;15.00;101213.00;;;;4951617;28;97999;-58
2022/10/04 07:53:02;;;;;;;1.17;0.97;;;14.90;99.90;14.90;101217.00;;;;4959991;28;88187;-59
2022/10/04 07:55:54;;;;;;;1.10;1.00;;;14.90;99.90;14.90;101229.00;;;;4967727;28;106695;-58
2022/10/04 07:58:30;;;;;;;1.20;0.87;;;14.90;99.90;14.90;101235.00;;;;4947712;28;92503;-59
2022/10/04 08:01:06;;;;;;;1.85;1.40;;;14.90;99.90;14.90;101212.00;;;;4954076;28;87891;-60
2022/10/04 08:04:17;;;;;;;3.65;1.15;;;14.90;99.90;14.90;101223.00;;;;4952472;28;112270;-60
2022/10/04 08:07:00;;;;;;;1.33;1.23;;;14.90;99.90;14.90;101222.00;;;;4967823;28;87988;-59
2022/10/04 08:09:56;;;;;;;1.38;1.27;;;14.90;99.90;14.90;101225.00;;;;4955429;28;88096;-58
2022/10/04 08:12:51;;;;;;;1.17;0.85;;;14.90;99.90;14.90;101237.00;;;;4977648;27;89050;-58
2022/10/04 08:15:39;;;;;;;5.78;1.73;;;14.90;99.90;15.00;101229.00;;;;4951181;28;109439;-57
2022/10/04 08:18:22;;;;;;;2.57;1.13;;;14.90;99.90;15.00;101227.00;;;;4952041;28;89378;-56
2022/10/04 08:20:58;;;;;;;4.07;1.43;;;15.00;99.90;15.10;101227.00;;;;4949112;28;87490;-59
2022/10/04 08:23:57;;;;;;;1.10;0.90;;;15.00;99.90;15.10;101228.00;;;;4953009;28;87909;-58
2022/10/04 08:26:59;;;;;;;3.08;1.08;;;15.00;99.90;15.20;101235.00;;;;4965810;28;88990;-58
2022/10/04 08:29:57;;;;;;;5.25;1.55;;;15.10;99.90;15.30;101231.00;;;;4950271;28;88829;-59
2022/10/04 08:33:08;;;;;;;1.17;0.98;;;15.20;99.90;15.50;101248.00;;;;4960305;28;87211;-59
2022/10/04 08:36:24;;;;;;;0.45;0.35;;;15.30;99.90;15.50;101245.00;;;;4949566;28;99035;-59
2022/10/04 08:38:57;;;;;;;0.75;0.60;;;15.40;99.90;15.60;101250.00;;;;4957418;28;108640;-59
2022/10/04 08:41:34;;;;;;;4.10;0.75;;;15.50;99.90;15.80;101254.00;;;;4952011;28;88758;-58
2022/10/04 08:44:41;;;;;;;1.23;0.80;;;15.60;99.90;15.90;101252.00;;;;4954306;28;90567;-58
2022/10/04 08:47:28;;;;;;;0.98;0.93;;;15.80;99.90;15.90;101259.00;;;;4952705;28;88168;-59
2022/10/04 08:50:43;;;;;;;1.08;1.00;;;15.80;99.90;15.90;101265.00;;;;4952964;28;88218;-59
2022/10/04 08:53:27;;;;;;;2.92;1.20;;;15.80;99.90;16.10;101254.00;;;;4965099;28;89179;-58
2022/10/04 08:56:35;;;;;;;1.90;1.13;;;15.90;99.90;16.20;101275.00;;;;4953520;28;94753;-60
2022/10/04 08:59:39;;;;;;;1.02;0.70;;;16.10;99.90;16.20;101264.00;;;;4966129;28;88017;-60
2022/10/04 09:02:46;;;;;;;1.48;0.88;;;16.10;99.90;16.20;101256.00;;;;4964515;28;111754;-60
2022/10/04 09:05:45;;;;;;;1.00;0.70;;;16.10;99.90;16.20;101260.00;;;;4952719;28;88991;-58
2022/10/04 09:08:45;;;;;;;1.90;0.77;;;16.20;99.90;16.30;101258.00;;;;4952747;28;103048;-59
2022/10/04 09:11:31;;;;;;;1.23;1.00;;;16.20;99.90;16.40;101261.00;;;;4960041;28;88716;-60
2022/10/04 09:14:30;;;;;;;5.38;1.05;;;16.30;99.90;16.40;101260.00;;;;4943957;28;88311;-59
2022/10/04 09:17:28;;;;;;;2.78;1.00;;;16.30;99.90;16.50;101260.00;;;;4952212;28;88477;-58
2022/10/04 09:20:20;;;;;;;0.88;0.70;;;16.40;99.90;16.50;101255.00;;;;4949534;28;87777;-59
2022/10/04 09:23:20;;;;;;;1.27;0.98;;;16.40;99.90;16.60;101260.00;;;;4947852;28;87998;-59
2022/10/04 09:26:20;;;;;;;2.80;1.17;;;16.50;99.90;16.70;101261.00;;;;4944014;28;89035;-58
2022/10/04 09:29:51;;;;;;;3.17;1.08;;;16.60;99.90;16.80;101266.00;;;;4949105;28;87999;-60
2022/10/04 09:32:56;;;;;;;2.47;1.15;;;16.70;99.90;16.90;101268.00;;;;4939316;28;87092;-60
2022/10/04 09:36:02;;;;;;;2.33;1.20;;;16.80;99.90;17.10;101267.00;;;;4941404;28;88293;-59
2022/10/04 09:39:00;;;;;;;1.90;1.40;;;17.00;99.90;17.50;101267.00;;;;4947393;28;88675;-59
2022/10/04 09:42:04;;;;;;;2.05;1.00;;;17.30;99.90;17.80;101274.00;;;;4945725;28;89514;-60
2022/10/04 09:45:20;;;;;;;4.00;1.13;;;17.60;99.90;18.00;101272.00;;;;4963581;28;87863;-60
2022/10/04 09:47:57;;;;;;;1.48;0.80;;;17.80;99.90;17.90;101272.00;;;;4942154;28;87793;-60
2022/10/04 09:51:00;;;;;;;2.30;0.88;;;17.80;99.90;17.80;101275.00;;;;4961193;28;88890;-60
2022/10/04 09:54:08;;;;;;;1.58;0.93;;;17.80;99.90;17.80;101277.00;;;;4948403;28;88603;-59
2022/10/04 09:56:55;;;;;;;0.52;0.52;;;17.80;99.90;17.90;101260.00;;;;4967434;28;89767;-59
2022/10/04 09:59:55;;;;;;;1.73;1.30;;;17.80;99.90;18.10;101267.00;;;;4949851;28;87763;-61
2022/10/04 10:03:00;;;;;;;1.55;1.23;;;17.90;99.90;18.40;101271.00;;;;4952136;28;88761;-60
2022/10/04 10:05:48;;;;;;;1.38;0.68;;;18.20;99.90;18.70;101264.00;;;;4954096;28;88119;-59
2022/10/04 10:09:10;;;;;;;1.15;0.90;;;18.50;99.90;19.00;101281.00;;;;4985323;28;87903;-59
2022/10/04 10:15:18;;;;;;;1.85;0.80;;;19.00;99.60;19.60;101270.00;;;;4960314;28;87745;-60
2022/10/04 10:18:14;;;;;;;1.15;1.00;;;19.20;99.10;19.90;101265.00;;;;4955706;28;88318;-61
2022/10/04 10:21:11;;;;;;;1.60;1.10;;;19.60;98.40;19.90;101271.00;;;;4970456;28;87629;-59
2022/10/04 10:23:52;;;;;;;0.80;0.73;;;19.70;96.80;19.80;101268.00;;;;4950754;28;87932;-59
2022/10/04 10:26:22;;;;;;;2.42;1.13;;;19.60;96.20;19.60;101266.00;;;;4972575;28;106693;-59
2022/10/04 10:29:20;;;;;;;0.68;0.60;;;19.50;95.80;19.40;101280.00;;;;4958446;28;88112;-58
2022/10/04 10:32:36;;;;;;;2.42;0.80;;;19.30;95.70;19.50;101279.00;;;;4953099;28;86957;-59
2022/10/04 10:35:25;;;;;;;0.98;0.80;;;19.30;96.10;19.60;101271.00;;;;4953213;28;87894;-59
2022/10/04 10:38:30;;;;;;;5.35;0.75;;;19.40;95.80;19.60;101271.00;;;;4971448;28;88784;-59
2022/10/04 10:41:41;;;;;;;1.33;0.63;;;19.40;95.80;19.50;101274.00;;;;4958566;28;88671;-59
2022/10/04 10:44:22;;;;;;;0.77;0.75;;;19.40;95.10;19.30;101272.00;;;;4951102;28;101577;-59
2022/10/04 10:47:30;;;;;;;3.47;1.00;;;19.20;94.70;19.00;101270.00;;;;4968841;28;87712;-59
2022/10/04 10:50:15;;;;;;;1.92;1.17;;;19.00;94.90;18.90;101269.00;;;;4956331;28;89355;-59
2022/10/04 10:53:48;;;;;;;2.08;0.75;;;18.90;95.00;18.60;101265.00;;;;4951146;28;88201;-59
2022/10/04 10:56:55;;;;;;;1.02;0.75;;;18.60;95.10;18.40;101264.00;;;;4945129;28;87774;-60
2022/10/04 11:00:12;;;;;;;2.00;0.57;;;18.40;95.50;18.30;101268.00;;;;4955102;28;87945;-59
2022/10/04 11:03:22;;;;;;;0.75;0.60;;;18.30;95.50;18.10;101269.00;;;;4955927;28;87673;-60
2022/10/04 11:06:30;;;;;;;1.85;0.95;;;18.10;95.80;18.20;101259.00;;;;4959824;28;108670;-58
2022/10/04 11:09:27;;;;;;;2.17;0.90;;;18.10;96.40;18.60;101262.00;;;;4951739;28;87933;-58
2022/10/04 11:12:11;;;;;;;3.45;1.48;;;18.30;96.40;18.90;101267.00;;;;4956484;28;88517;-59
2022/10/04 11:14:51;;;;;;;4.95;1.05;;;18.60;95.90;19.20;101261.00;;;;4952309;28;88786;-59
2022/10/04 11:17:45;;;;;;;0.93;0.52;;;18.90;95.60;19.40;101264.00;;;;4974937;28;112807;-58
2022/10/04 11:20:46;;;;;;;5.88;1.02;;;19.20;95.60;19.50;101263.00;;;;4968251;28;87767;-60
2022/10/04 11:24:18;;;;;;;2.33;0.82;;;19.30;94.40;19.40;101262.00;;;;4961499;28;87595;-57
2022/10/04 11:27:27;;;;;;;1.10;0.70;;;19.20;93.70;19.20;101263.00;;;;4955724;28;88560;-59
2022/10/04 11:30:25;;;;;;;0.77;0.68;;;19.10;93.30;19.10;101263.00;;;;4967468;28;88947;-59
2022/10/04 11:33:38;;;;;;;1.35;1.00;;;19.00;93.30;19.10;101261.00;;;;4966291;28;87215;-60
2022/10/04 11:36:14;;;;;;;0.98;0.85;;;18.90;93.10;19.30;101262.00;;;;4964055;28;99449;-59
2022/10/04 11:39:21;;;;;;;3.05;0.85;;;19.10;93.60;19.60;101269.00;;;;4955647;28;110685;-59
2022/10/04 11:42:16;;;;;;;4.00;1.13;;;19.30;93.30;19.70;101270.00;;;;4955789;28;88682;-59
2022/10/04 11:45:32;;;;;;;1.27;0.82;;;19.40;92.50;19.50;101266.00;;;;4951828;28;87902;-57
2022/10/04 11:48:19;;;;;;;1.48;1.20;;;19.40;91.50;19.50;101279.00;;;;4948605;28;88051;-59
2022/10/04 11:51:34;;;;;;;0.73;0.65;;;19.30;91.60;20.10;101265.00;;;;4949925;28;107827;-59
2022/10/04 11:54:15;;;;;;;1.63;0.70;;;19.60;92.10;20.60;101259.00;;;;4962091;28;88702;-58
2022/10/04 11:57:14;;;;;;;2.53;0.73;;;20.10;91.40;21.10;101251.00;;;;4954117;28;96923;-58
2022/10/04 12:00:10;;;;;;;0.63;0.60;;;20.60;91.30;21.40;101256.00;;;;4955396;28;87804;-55
2022/10/04 12:03:08;;;;;;;1.05;0.70;;;20.90;90.20;21.50;101255.00;;;;4971009;28;87325;-58
2022/10/04 12:05:50;;;;;;;3.25;0.65;;;21.10;89.60;21.60;101245.00;;;;4950714;28;87624;-58
2022/10/04 12:09:05;;;;;;;0.75;0.63;;;21.20;88.00;21.50;101244.00;;;;4953470;28;93619;-59
2022/10/04 12:15:03;;;;;;;5.25;0.77;;;21.10;84.90;21.40;101239.00;;;;4950081;28;88390;-59
2022/10/04 12:17:35;;;;;;;2.22;0.70;;;21.10;85.40;21.90;101240.00;;;;4952760;28;88256;-58